Time;durP1;ratioP1;P1;durP2;ratioP2;P2;SDS_P1;SDS_P2;PMS_P1;PMS_P2;Temp;Humidity;BMP_temperature;BMP_pressure;BME280_temperature;BME280_humidity;BME280_pressure;Samples;Min_cycle;Max_cycle;Signal;HPM_P1;HPM_P2
2022/05/04 00:01:51;;;;;;;;;9.80;9.40;;;;;9.87;56.73;100082.47;5098513;28;8828;-63
2022/05/04 00:04:18;;;;;;;;;12.00;10.00;;;;;9.82;57.15;100085.47;5098163;28;8849;-64
2022/05/04 00:06:46;;;;;;;;;13.80;10.00;;;;;9.79;56.87;100084.84;5098784;28;8832;-64
2022/05/04 00:09:14;;;;;;;;;8.60;8.60;;;;;9.77;56.99;100086.75;5097114;28;8941;-62
2022/05/04 00:11:44;;;;;;;;;12.20;11.20;;;;;9.75;56.90;100083.34;5097155;28;8838;-63
2022/05/04 00:14:11;;;;;;;;;14.60;13.00;;;;;9.72;56.78;100084.44;5098043;28;9854;-62
2022/05/04 00:16:39;;;;;;;;;10.80;9.40;;;;;9.71;57.22;100080.06;5098405;28;8834;-64
2022/05/04 00:19:07;;;;;;;;;11.20;10.00;;;;;9.70;56.99;100085.50;5096890;28;8862;-63
2022/05/04 00:21:35;;;;;;;;;11.80;10.60;;;;;9.68;57.19;100092.75;5096902;28;8859;-63
2022/05/04 00:24:02;;;;;;;;;12.40;12.40;;;;;9.64;57.37;100086.81;5097371;28;8932;-63
2022/05/04 00:26:30;;;;;;;;;11.20;9.40;;;;;9.58;57.30;100084.59;5096960;28;8866;-63
2022/05/04 00:28:58;;;;;;;;;12.20;9.60;;;;;9.51;57.42;100078.06;5097027;28;9659;-62
2022/05/04 00:31:26;;;;;;;;;11.60;10.80;;;;;9.46;57.70;100077.53;5097357;28;8962;-63
2022/05/04 00:33:53;;;;;;;;;10.00;9.20;;;;;9.42;57.51;100083.19;5097275;28;8823;-63
2022/05/04 00:36:21;;;;;;;;;9.20;8.20;;;;;9.36;58.07;100083.63;5097202;28;8824;-62
2022/05/04 00:38:49;;;;;;;;;14.40;12.40;;;;;9.30;58.09;100087.59;5097584;28;9520;-63
2022/05/04 00:41:17;;;;;;;;;14.60;10.40;;;;;9.26;58.18;100077.28;5097608;28;8897;-63
2022/05/04 00:43:45;;;;;;;;;8.60;6.80;;;;;9.21;57.95;100068.78;5097956;28;8839;-63
2022/05/04 00:46:12;;;;;;;;;12.60;11.60;;;;;9.17;57.92;100075.25;5097794;28;8831;-63
2022/05/04 00:48:40;;;;;;;;;10.20;9.60;;;;;9.14;57.63;100076.34;5096567;28;8851;-63
2022/05/04 00:51:08;;;;;;;;;10.60;8.80;;;;;9.14;58.20;100083.47;5087399;28;8832;-64
2022/05/04 00:53:36;;;;;;;;;8.60;8.60;;;;;9.11;58.21;100079.22;5095737;28;8835;-63
2022/05/04 00:56:04;;;;;;;;;9.40;8.20;;;;;9.11;58.26;100083.69;5096114;28;8827;-63
2022/05/04 01:01:17;;;;;;;;;14.60;14.20;;;;;9.06;58.39;100070.75;5095814;28;8832;-63
2022/05/04 01:03:45;;;;;;;;;12.80;12.40;;;;;9.04;58.09;100080.59;5095540;28;8827;-64
2022/05/04 01:06:13;;;;;;;;;11.20;10.40;;;;;9.02;58.44;100082.53;5095705;28;8835;-63
2022/05/04 01:08:41;;;;;;;;;11.00;10.20;;;;;9.01;58.46;100075.53;5095289;28;8873;-62
2022/05/04 01:11:09;;;;;;;;;8.80;7.80;;;;;9.01;58.32;100072.00;5095451;28;8870;-66
2022/05/04 01:13:36;;;;;;;;;9.80;9.40;;;;;8.99;58.08;100071.28;5095852;28;9811;-63
2022/05/04 01:16:04;;;;;;;;;13.00;12.40;;;;;8.97;58.42;100079.34;5095851;28;8844;-63
2022/05/04 01:18:33;;;;;;;;;9.00;7.60;;;;;8.95;58.74;100078.63;5095403;28;8849;-63
2022/05/04 01:21:00;;;;;;;;;9.20;8.20;;;;;8.93;58.71;100077.88;5094640;28;8843;-62
2022/05/04 01:23:28;;;;;;;;;7.80;7.80;;;;;8.92;58.58;100085.94;5095330;28;9488;-62
2022/05/04 01:25:56;;;;;;;;;11.20;11.20;;;;;8.89;58.46;100081.69;5095306;28;9771;-62
2022/05/04 01:28:24;;;;;;;;;11.20;10.60;;;;;8.87;58.57;100083.63;5094902;28;8827;-62
2022/05/04 01:30:52;;;;;;;;;10.20;7.80;;;;;8.84;58.20;100078.53;5095571;28;8835;-63
2022/05/04 01:33:20;;;;;;;;;10.00;9.80;;;;;8.84;59.04;100081.19;5097251;28;8855;-63
2022/05/04 01:35:48;;;;;;;;;9.40;7.80;;;;;8.82;58.53;100068.97;5096823;28;8857;-62
2022/05/04 01:38:15;;;;;;;;;8.20;7.80;;;;;8.82;58.23;100076.94;5097057;28;8819;-63
2022/05/04 01:40:43;;;;;;;;;12.40;11.20;;;;;8.81;58.49;100072.59;5096419;28;8819;-62
2022/05/04 01:43:11;;;;;;;;;11.40;10.80;;;;;8.80;58.50;100077.03;5095667;28;8831;-62
2022/05/04 01:45:38;;;;;;;;;12.60;10.20;;;;;8.78;58.57;100076.31;5094764;28;8867;-62
2022/05/04 01:48:06;;;;;;;;;8.40;6.40;;;;;8.75;58.71;100079.16;5094159;28;8846;-63
2022/05/04 01:50:34;;;;;;;;;10.80;10.80;;;;;8.71;58.92;100085.66;5094991;28;8843;-63
2022/05/04 01:53:01;;;;;;;;;11.20;8.80;;;;;8.61;58.58;100081.09;5094549;28;8827;-62
2022/05/04 01:55:29;;;;;;;;;7.40;7.00;;;;;8.47;59.01;100084.69;5095148;28;8870;-63
2022/05/04 01:57:57;;;;;;;;;7.80;6.40;;;;;8.32;59.55;100085.75;5094360;28;8845;-63
2022/05/04 02:00:25;;;;;;;;;6.20;6.20;;;;;8.20;60.00;100081.25;5094916;28;8836;-63
2022/05/04 02:02:52;;;;;;;;;6.80;6.00;;;;;8.09;59.54;100075.81;5094962;28;8839;-61
2022/05/04 02:05:20;;;;;;;;;10.40;9.80;;;;;8.00;60.46;100079.06;5094424;28;8823;-62
2022/05/04 02:07:48;;;;;;;;;5.20;3.80;;;;;7.90;60.76;100072.69;5094716;28;9773;-62
2022/05/04 02:10:16;;;;;;;;;13.80;10.80;;;;;7.81;60.31;100075.94;5095576;28;8854;-62
2022/05/04 02:12:43;;;;;;;;;11.60;11.20;;;;;7.74;60.79;100077.31;5096010;28;8865;-63
2022/05/04 02:15:11;;;;;;;;;11.20;10.00;;;;;7.70;60.85;100070.50;5096080;28;8828;-62
2022/05/04 02:17:39;;;;;;;;;10.40;9.40;;;;;7.69;60.70;100078.56;5094677;28;8823;-63
2022/05/04 02:20:07;;;;;;;;;12.00;10.00;;;;;7.69;60.65;100073.28;5094067;28;8840;-63
2022/05/04 02:22:35;;;;;;;;;9.60;9.40;;;;;7.71;61.14;100068.72;5093890;28;8843;-63
2022/05/04 02:25:02;;;;;;;;;10.60;9.40;;;;;7.72;60.52;100076.56;5094198;28;8820;-63
2022/05/04 02:27:31;;;;;;;;;9.80;9.20;;;;;7.74;60.43;100077.31;5094171;28;8832;-63
2022/05/04 02:29:58;;;;;;;;;9.60;9.40;;;;;7.75;60.55;100070.22;5094057;28;8846;-63
2022/05/04 02:32:26;;;;;;;;;14.60;12.40;;;;;7.76;60.66;100075.41;5094171;28;8866;-62
2022/05/04 02:37:59;;;;;;;;;9.80;9.20;;;;;7.79;60.08;100080.53;5096045;28;8891;-63
2022/05/04 02:40:27;;;;;;;;;11.00;9.00;;;;;7.81;60.24;100064.50;5095577;28;8820;-63
2022/05/04 02:42:55;;;;;;;;;11.20;10.40;;;;;7.84;60.54;100061.66;5095427;28;8835;-63
2022/05/04 02:45:23;;;;;;;;;9.00;7.00;;;;;7.83;60.10;100057.31;5095779;28;8893;-62
2022/05/04 02:47:51;;;;;;;;;12.40;12.40;;;;;7.85;60.07;100063.34;5095244;28;9679;-63
2022/05/04 02:50:19;;;;;;;;;11.60;11.60;;;;;7.83;60.27;100060.78;5095441;28;8836;-63
2022/05/04 02:52:47;;;;;;;;;12.00;12.00;;;;;7.84;60.35;100061.66;5095923;28;8973;-62
2022/05/04 02:55:15;;;;;;;;;14.00;11.60;;;;;7.80;60.34;100055.69;5095681;28;8831;-62
2022/05/04 02:57:43;;;;;;;;;13.00;9.80;;;;;7.78;60.32;100067.34;5095349;28;8840;-62
2022/05/04 03:00:10;;;;;;;;;12.00;11.20;;;;;7.74;60.34;100061.41;5095167;28;8845;-63
2022/05/04 03:02:37;;;;;;;;;13.20;10.80;;;;;7.69;60.58;100058.19;5094855;28;8905;-62
2022/05/04 03:05:05;;;;;;;;;6.40;6.20;;;;;7.65;60.46;100060.31;5094961;28;8819;-62
2022/05/04 03:07:33;;;;;;;;;9.80;8.00;;;;;7.59;60.91;100058.91;5094878;28;8846;-63
2022/05/04 03:10:00;;;;;;;;;6.40;6.20;;;;;7.55;60.57;100060.06;5094222;28;8847;-63
2022/05/04 03:12:28;;;;;;;;;6.80;6.80;;;;;7.52;61.01;100067.38;5094215;28;8941;-62
2022/05/04 03:14:56;;;;;;;;;7.80;7.00;;;;;7.51;61.04;100066.50;5094336;28;8835;-63
2022/05/04 03:17:24;;;;;;;;;2.60;1.00;;;;;7.51;60.76;100063.03;5094328;28;8828;-63
2022/05/04 03:19:52;;;;;;;;;8.20;7.00;;;;;7.51;60.66;100063.03;5093576;28;8836;-62
2022/05/04 03:22:20;;;;;;;;;9.60;9.40;;;;;7.51;60.64;100058.56;5093840;28;8852;-63
2022/05/04 03:24:47;;;;;;;;;9.80;9.00;;;;;7.52;60.91;100064.72;5095160;28;8850;-63
2022/05/04 03:27:15;;;;;;;;;7.40;7.40;;;;;7.49;61.00;100055.16;5095445;28;8835;-62
2022/05/04 03:29:43;;;;;;;;;11.20;9.60;;;;;7.47;60.70;100050.91;5095525;28;8962;-63
2022/05/04 03:32:11;;;;;;;;;9.40;9.20;;;;;7.43;61.14;100060.03;5099120;28;9010;-62
2022/05/04 03:34:38;;;;;;;;;7.40;7.00;;;;;7.34;61.04;100050.88;5099011;28;8819;-62
2022/05/04 03:37:07;;;;;;;;;7.80;7.80;;;;;7.25;60.83;100046.16;5098737;28;8831;-62
2022/05/04 03:39:35;;;;;;;;;7.40;7.40;;;;;7.19;61.39;100043.91;5098740;28;8871;-63
2022/05/04 03:42:02;;;;;;;;;8.00;7.80;;;;;7.13;61.69;100051.41;5098075;28;8839;-62
2022/05/04 03:44:30;;;;;;;;;12.00;10.00;;;;;7.07;61.45;100044.72;5097468;28;8877;-62
2022/05/04 03:46:58;;;;;;;;;9.40;8.60;;;;;7.04;61.63;100044.88;5098317;28;8919;-63
2022/05/04 03:49:26;;;;;;;;;7.60;6.80;;;;;7.04;61.34;100052.81;5098468;28;8915;-63
2022/05/04 03:51:53;;;;;;;;;9.80;8.80;;;;;7.04;61.90;100057.28;5098613;28;8832;-63
2022/05/04 03:54:21;;;;;;;;;4.20;4.20;;;;;7.06;61.39;100055.38;5098217;28;8863;-64
2022/05/04 03:56:49;;;;;;;;;9.00;7.80;;;;;7.06;61.83;100044.78;5098481;28;8839;-63
2022/05/04 03:59:17;;;;;;;;;6.00;4.40;;;;;7.10;60.98;100049.78;5097967;28;8901;-64
2022/05/04 04:01:44;;;;;;;;;13.00;12.00;;;;;7.14;61.00;100053.09;5098711;28;8962;-63
2022/05/04 04:04:12;;;;;;;;;9.60;9.00;;;;;7.17;60.88;100058.19;5098599;28;9517;-63
2022/05/04 04:06:40;;;;;;;;;13.00;13.00;;;;;7.18;61.06;100055.44;5097897;28;8835;-63
2022/05/04 04:09:07;;;;;;;;;9.20;9.20;;;;;7.22;61.31;100056.09;5097617;28;8841;-62
2022/05/04 04:11:36;;;;;;;;;12.20;10.40;;;;;7.27;60.81;100051.38;5098426;28;8855;-62
2022/05/04 04:14:04;;;;;;;;;7.80;6.00;;;;;7.34;61.13;100056.16;5098196;28;8827;-63
2022/05/04 04:16:31;;;;;;;;;9.20;6.40;;;;;7.38;60.42;100062.09;5096838;28;8847;-62
2022/05/04 04:18:59;;;;;;;;;11.20;9.20;;;;;7.40;60.45;100053.13;5096714;28;8831;-62
2022/05/04 04:24:12;;;;;;;;;11.60;10.00;;;;;7.36;61.13;100058.72;5097068;28;8840;-62
2022/05/04 04:26:39;;;;;;;;;7.40;7.00;;;;;7.32;61.11;100062.50;5096970;28;8828;-63
2022/05/04 04:29:08;;;;;;;;;9.80;9.40;;;;;7.30;61.25;100059.09;5096709;28;8819;-63
2022/05/04 04:31:36;;;;;;;;;15.20;13.00;;;;;7.27;61.13;100048.72;5095521;28;8866;-63
2022/05/04 04:34:04;;;;;;;;;8.60;7.00;;;;;7.27;61.01;100061.97;5096366;28;8840;-63
2022/05/04 04:36:38;;;;;;;;;11.80;11.20;;;;;7.27;61.02;100070.75;5095686;28;8839;-63
2022/05/04 04:39:06;;;;;;;;;12.00;10.40;;;;;7.28;60.89;100055.72;5096065;28;8836;-64
2022/05/04 04:41:34;;;;;;;;;9.20;7.00;;;;;7.27;61.27;100060.16;5096259;28;8973;-64
2022/05/04 04:44:02;;;;;;;;;4.00;3.00;;;;;7.25;61.22;100070.00;5096832;28;8849;-63
2022/05/04 04:46:30;;;;;;;;;8.00;6.80;;;;;7.28;61.01;100076.91;5097561;28;9540;-63
2022/05/04 04:48:58;;;;;;;;;10.80;10.40;;;;;7.30;60.84;100067.06;5096693;28;8865;-62
2022/05/04 04:51:26;;;;;;;;;10.80;10.80;;;;;7.34;60.34;100071.22;5097017;28;8824;-62
2022/05/04 04:53:54;;;;;;;;;12.40;10.00;;;;;7.42;60.73;100075.06;5097195;28;8816;-63
2022/05/04 04:56:21;;;;;;;;;7.00;7.00;;;;;7.52;61.14;100072.66;5097020;28;8835;-62
2022/05/04 04:58:49;;;;;;;;;10.00;10.00;;;;;7.58;60.55;100075.75;5097331;28;8962;-62
2022/05/04 05:01:17;;;;;;;;;15.40;12.00;;;;;7.64;60.48;100077.19;5096914;28;8972;-64
2022/05/04 05:03:45;;;;;;;;;11.20;10.00;;;;;7.68;60.66;100077.72;5096185;28;9497;-63
2022/05/04 05:06:13;;;;;;;;;10.00;9.40;;;;;7.68;60.57;100076.00;5096192;28;8836;-63
2022/05/04 05:08:42;;;;;;;;;13.40;12.00;;;;;7.69;60.46;100079.41;5095158;28;8843;-63
2022/05/04 05:11:09;;;;;;;;;12.00;11.60;;;;;7.73;60.97;100085.34;5094895;28;8830;-63
2022/05/04 05:16:06;;;;;;;;;9.40;8.60;;;;;7.79;60.33;100083.16;5094624;28;8848;-63
2022/05/04 05:16:24;;;;;;;;;10.00;9.20;;;;;7.90;60.08;100079.81;5093816;28;8812;-63
2022/05/04 05:18:52;;;;;;;;;14.60;10.00;;;;;7.98;60.04;100088.94;5095370;28;8823;-66
2022/05/04 05:21:19;;;;;;;;;12.00;12.00;;;;;8.09;59.65;100078.47;5095215;28;8843;-63
2022/05/04 05:23:47;;;;;;;;;6.40;6.00;;;;;8.21;60.01;100080.31;5095515;28;10046;-62
2022/05/04 05:26:15;;;;;;;;;12.60;12.60;;;;;8.31;59.57;100076.09;5094845;28;8831;-63
2022/05/04 05:28:42;;;;;;;;;11.40;10.00;;;;;8.43;59.41;100077.06;5094944;28;8827;-63
2022/05/04 05:31:10;;;;;;;;;9.00;8.20;;;;;8.54;59.03;100075.38;5095179;28;8841;-64
2022/05/04 05:33:38;;;;;;;;;4.00;3.00;;;;;8.60;59.00;100074.91;5095524;28;8901;-63
2022/05/04 05:36:07;;;;;;;;;9.40;9.00;;;;;8.71;58.83;100069.72;5094753;28;8861;-64
2022/05/04 05:38:34;;;;;;;;;11.60;10.20;;;;;8.88;58.55;100064.06;5095189;28;8839;-68
2022/05/04 05:41:02;;;;;;;;;12.00;9.80;;;;;9.13;58.59;100066.66;5095554;28;8839;-63
2022/05/04 05:43:30;;;;;;;;;9.40;8.20;;;;;9.35;57.62;100058.84;5095144;28;9721;-63
2022/05/04 05:45:58;;;;;;;;;9.80;9.00;;;;;9.60;57.39;100063.22;5093969;28;8828;-63
2022/05/04 05:48:25;;;;;;;;;13.60;11.60;;;;;9.79;57.35;100059.09;5093321;28;8863;-64
2022/05/04 05:50:53;;;;;;;;;11.60;10.00;;;;;9.93;56.95;100061.56;5091502;28;8964;-64
2022/05/04 05:53:22;;;;;;;;;10.80;9.80;;;;;10.02;56.86;100065.34;5092474;28;8831;-63
2022/05/04 05:55:50;;;;;;;;;10.20;9.80;;;;;10.04;57.16;100074.97;5092846;28;8832;-64
2022/05/04 05:58:18;;;;;;;;;7.50;7.50;;;;;10.09;57.52;100066.63;5091902;28;8831;-64
2022/05/04 06:00:46;;;;;;;;;12.00;9.60;;;;;10.14;56.96;100070.63;5090848;28;8827;-65
2022/05/04 06:03:14;;;;;;;;;8.75;7.50;;;;;10.14;57.47;100069.75;5091553;28;9517;-64
2022/05/04 06:05:42;;;;;;;;;15.60;11.20;;;;;10.16;57.20;100074.00;5090624;28;9613;-65
2022/05/04 06:08:11;;;;;;;;;8.00;8.00;;;;;10.20;57.30;100069.31;5091447;28;8855;-64
2022/05/04 06:10:38;;;;;;;;;12.00;10.50;;;;;10.18;57.47;100068.59;5091744;28;8857;-63
2022/05/04 06:13:06;;;;;;;;;9.75;9.25;;;;;10.23;57.65;100069.09;5093168;28;8836;-64
2022/05/04 06:15:34;;;;;;;;;7.80;6.20;;;;;10.30;57.55;100073.81;5095136;28;8848;-64
2022/05/04 06:18:02;;;;;;;;;9.00;9.00;;;;;10.42;57.63;100069.38;5094908;28;8862;-67
2022/05/04 06:20:31;;;;;;;;;9.00;7.00;;;;;10.55;56.97;100064.78;5095091;28;8855;-64
2022/05/04 06:22:59;;;;;;;;;11.20;11.20;;;;;10.67;56.90;100062.03;5093706;28;8964;-66
2022/05/04 06:25:29;;;;;;;;;9.50;8.00;;;;;10.79;56.70;100063.75;5093524;28;8836;-66
2022/05/04 06:27:56;;;;;;;;;8.20;7.00;;;;;10.89;56.75;100066.50;5092621;28;8858;-63
2022/05/04 06:35:55;;;;;;;;;8.50;7.00;;;;;11.29;55.97;100062.38;5091872;28;8958;-63
2022/05/04 06:38:23;;;;;;;;;13.50;10.00;;;;;11.40;56.14;100065.00;5091844;28;9520;-63
2022/05/04 06:40:51;;;;;;;;;13.00;12.50;;;;;11.46;55.82;100057.34;5091565;28;8954;-65
2022/05/04 06:43:18;;;;;;;;;4.00;4.00;;;;;11.56;56.24;100068.97;5092218;28;8835;-67
2022/05/04 06:45:46;;;;;;;;;14.00;12.75;;;;;11.63;56.02;100064.88;5092870;28;8843;-64
2022/05/04 06:48:14;;;;;;;;;6.25;6.25;;;;;11.74;56.06;100070.16;5093328;28;8911;-64
2022/05/04 06:50:41;;;;;;;;;9.50;9.00;;;;;11.85;55.60;100062.13;5092887;28;8851;-64
2022/05/04 06:53:09;;;;;;;;;7.00;6.50;;;;;11.96;55.54;100067.41;5093238;28;8842;-64
2022/05/04 06:55:38;;;;;;;;;14.00;12.00;;;;;11.99;55.68;100067.16;5093085;28;8844;-65
2022/05/04 06:58:06;;;;;;;;;13.50;13.50;;;;;12.04;55.52;100068.47;5091568;28;8823;-64
2022/05/04 07:00:34;;;;;;;;;12.50;9.25;;;;;12.11;55.62;100067.00;5093049;28;8853;-64
2022/05/04 07:03:02;;;;;;;;;16.50;15.75;;;;;12.18;55.45;100068.19;5091286;28;8853;-64
2022/05/04 07:05:29;;;;;;;;;17.00;12.50;;;;;12.31;55.06;100067.97;5091190;28;8971;-63
2022/05/04 07:07:57;;;;;;;;;18.75;16.00;;;;;12.39;55.49;100069.00;5092739;28;8851;-64
2022/05/04 07:10:25;;;;;;;;;12.75;12.75;;;;;12.45;55.23;100065.00;5093623;28;8835;-63
2022/05/04 07:12:53;;;;;;;;;12.75;11.00;;;;;12.48;55.71;100060.22;5093466;28;8984;-63
2022/05/04 07:15:20;;;;;;;;;12.50;12.00;;;;;12.53;55.00;100066.00;5092131;28;8835;-64
2022/05/04 07:17:48;;;;;;;;;15.00;12.25;;;;;12.61;54.65;100063.53;5092626;28;8867;-63
2022/05/04 07:20:16;;;;;;;;;12.50;10.75;;;;;12.71;54.67;100059.09;5093092;28;8948;-63
2022/05/04 07:22:44;;;;;;;;;15.25;12.25;;;;;12.84;55.25;100058.88;5093488;28;8912;-63
2022/05/04 07:25:14;;;;;;;;;10.50;9.25;;;;;12.87;54.60;100064.81;5093553;28;8998;-68
2022/05/04 07:27:42;;;;;;;;;14.00;12.25;;;;;12.92;54.41;100061.72;5092161;28;8819;-65
2022/05/04 07:30:10;;;;;;;;;9.25;7.00;;;;;13.00;54.16;100069.97;5092764;28;8820;-63
2022/05/04 07:32:38;;;;;;;;;12.00;12.00;;;;;13.15;54.28;100068.63;5092572;28;8840;-63
2022/05/04 07:35:08;;;;;;;;;15.25;13.00;;;;;13.27;54.38;100067.50;5092419;28;8920;-63
2022/05/04 07:37:35;;;;;;;;;10.75;9.50;;;;;13.38;54.53;100067.41;5091944;28;8847;-64
2022/05/04 07:42:52;;;;;;;;;14.75;13.00;;;;;13.68;53.63;100072.69;5090966;28;8913;-63
2022/05/04 07:45:19;;;;;;;;;15.50;12.25;;;;;13.84;53.77;100064.97;5091497;28;8849;-63
2022/05/04 07:47:48;;;;;;;;;6.25;5.00;;;;;13.95;53.47;100070.16;5091723;28;8865;-63
2022/05/04 07:50:17;;;;;;;;;19.00;16.00;;;;;14.04;53.29;100056.78;5090247;28;8859;-63
2022/05/04 07:52:45;;;;;;;;;6.75;6.00;;;;;14.20;52.71;100065.13;5091022;28;8820;-63
2022/05/04 07:55:14;;;;;;;;;18.00;15.25;;;;;14.35;52.90;100068.25;5091973;28;8831;-64
2022/05/04 07:57:46;;;;;;;;;18.25;16.50;;;;;14.40;52.78;100071.31;5092170;28;8836;-64
2022/05/04 08:05:46;;;;;;;;;11.50;9.75;;;;;14.28;53.43;100075.97;5092925;28;8836;-63
2022/05/04 08:08:14;;;;;;;;;14.00;13.75;;;;;14.37;53.35;100076.97;5092947;28;8847;-63
2022/05/04 08:10:42;;;;;;;;;18.50;16.25;;;;;14.49;52.77;100075.84;5092713;28;8835;-63
2022/05/04 08:13:12;;;;;;;;;16.50;12.25;;;;;14.63;53.12;100067.38;5093216;28;8836;-64
2022/05/04 08:15:40;;;;;;;;;13.25;12.00;;;;;14.77;53.02;100073.09;5093320;28;8830;-63
2022/05/04 08:18:08;;;;;;;;;15.00;9.25;;;;;14.92;52.30;100070.78;5096733;28;8835;-63
2022/05/04 08:20:35;;;;;;;;;14.25;12.00;;;;;15.08;52.23;100071.00;5097143;28;8836;-64
2022/05/04 08:23:03;;;;;;;;;15.25;13.50;;;;;15.20;51.89;100064.47;5096507;28;8892;-63
2022/05/04 08:25:31;;;;;;;;;13.00;11.50;;;;;15.29;52.17;100067.13;5096645;28;8820;-63
2022/05/04 08:27:59;;;;;;;;;15.50;15.00;;;;;15.43;51.65;100066.66;5095078;28;8823;-63
2022/05/04 08:30:26;;;;;;;;;21.75;15.75;;;;;15.51;51.54;100061.38;5095409;28;8839;-64
2022/05/04 08:32:54;;;;;;;;;15.00;14.50;;;;;15.55;52.00;100061.94;5095203;28;8885;-63
2022/05/04 08:35:22;;;;;;;;;16.00;15.50;;;;;15.58;52.03;100062.47;5095658;28;8850;-63
2022/05/04 08:37:50;;;;;;;;;12.75;12.75;;;;;15.63;51.60;100067.38;5094982;28;8831;-64
2022/05/04 08:40:18;;;;;;;;;10.75;9.75;;;;;15.64;51.97;100066.38;5094106;28;8827;-63
2022/05/04 08:42:45;;;;;;;;;18.25;16.00;;;;;15.63;52.04;100075.44;5093853;28;8871;-64
2022/05/04 08:45:14;;;;;;;;;12.75;12.25;;;;;15.62;51.80;100073.75;5094416;28;8859;-63
2022/05/04 08:47:44;;;;;;;;;15.50;15.00;;;;;15.51;51.98;100068.56;5093827;28;9820;-64
2022/05/04 08:50:11;;;;;;;;;12.50;9.50;;;;;15.40;52.50;100069.63;5093847;28;8948;-63
2022/05/04 08:52:40;;;;;;;;;14.50;13.00;;;;;15.46;52.78;100069.03;5093962;28;8820;-64
2022/05/04 08:55:08;;;;;;;;;17.50;13.00;;;;;15.60;52.05;100068.53;5094426;28;8842;-64
2022/05/04 08:57:35;;;;;;;;;15.50;15.00;;;;;15.78;52.34;100066.69;5094525;28;8873;-64
2022/05/04 09:00:03;;;;;;;;;16.00;15.00;;;;;16.00;51.94;100057.38;5095100;28;8850;-63
2022/05/04 09:02:32;;;;;;;;;12.75;10.75;;;;;16.20;51.51;100060.56;5094288;28;8828;-64
2022/05/04 09:04:59;;;;;;;;;16.00;14.00;;;;;16.40;50.94;100061.28;5073724;28;8846;-64
2022/05/04 09:07:27;;;;;;;;;17.00;15.50;;;;;16.56;50.54;100051.47;5075191;28;8822;-64
2022/05/04 09:09:55;;;;;;;;;12.50;12.50;;;;;16.71;50.58;100055.28;5094918;28;8862;-64
2022/05/04 09:12:23;;;;;;;;;20.50;15.50;;;;;16.83;50.21;100053.19;5074671;28;8850;-65
2022/05/04 09:14:51;;;;;;;;;18.75;15.50;;;;;16.96;50.47;100053.59;5075121;28;8980;-63
2022/05/04 09:17:19;;;;;;;;;15.50;15.50;;;;;16.99;50.41;100048.75;5074403;28;8841;-64
2022/05/04 09:20:45;;;;;;;;;15.25;14.50;;;;;17.09;49.93;100054.84;5060153;28;8959;-64
2022/05/04 09:22:35;;;;;;;;;14.50;12.25;;;;;17.28;49.87;100054.59;5083783;28;8846;-63
2022/05/04 09:25:03;;;;;;;;;16.50;15.00;;;;;17.45;49.73;100052.88;5093696;28;8812;-63
2022/05/04 09:27:34;;;;;;;;;16.25;15.25;;;;;17.61;49.53;100051.06;5092172;28;8824;-63
2022/05/04 09:30:02;;;;;;;;;20.50;17.75;;;;;17.68;49.18;100048.56;5092509;28;8823;-64
2022/05/04 09:32:30;;;;;;;;;12.50;11.00;;;;;17.81;49.38;100044.38;5094191;28;8939;-63
2022/05/04 09:34:57;;;;;;;;;18.50;17.00;;;;;17.94;49.22;100047.44;5095470;28;8944;-63
2022/05/04 09:45:42;;;;;;;;;16.00;15.00;;;;;18.80;47.58;100043.22;5092917;28;8851;-63
2022/05/04 09:48:09;;;;;;;;;16.00;14.00;;;;;19.20;46.86;100043.16;5092596;28;8852;-63
2022/05/04 09:50:37;;;;;;;;;15.25;14.00;;;;;19.66;46.50;100045.78;5092527;28;9686;-64
2022/05/04 09:53:05;;;;;;;;;17.50;15.50;;;;;20.09;45.80;100047.13;5092046;28;8839;-63
2022/05/04 09:55:33;;;;;;;;;18.00;14.25;;;;;20.54;45.77;100041.66;5092439;28;8831;-65
2022/05/04 09:58:02;;;;;;;;;19.00;16.75;;;;;21.00;45.20;100039.53;5092696;28;8839;-63
2022/05/04 10:00:30;;;;;;;;;18.40;16.20;;;;;21.45;43.96;100030.34;5093357;28;8843;-67
2022/05/04 10:02:58;;;;;;;;;15.40;13.80;;;;;21.89;43.18;100031.97;5094178;28;9802;-63
2022/05/04 10:05:26;;;;;;;;;19.20;17.40;;;;;22.30;43.42;100033.00;5094318;28;8831;-63
2022/05/04 10:07:54;;;;;;;;;16.80;15.00;;;;;22.64;42.97;100025.00;5093894;28;8832;-63
2022/05/04 10:10:22;;;;;;;;;21.40;19.80;;;;;22.95;42.61;100035.44;5093180;28;8845;-63
2022/05/04 10:12:49;;;;;;;;;13.80;11.80;;;;;23.21;42.18;100025.63;5093407;28;9543;-63
2022/05/04 10:15:17;;;;;;;;;16.40;14.60;;;;;23.44;41.99;100025.34;5093494;28;8985;-63
2022/05/04 10:17:45;;;;;;;;;16.80;16.40;;;;;23.70;41.60;100030.88;5092049;28;8800;-64
2022/05/04 10:20:13;;;;;;;;;20.60;19.80;;;;;24.00;41.18;100030.38;5092418;28;8852;-69
2022/05/04 10:22:40;;;;;;;;;16.80;15.40;;;;;24.35;40.55;100025.63;5092279;28;8824;-63
2022/05/04 10:25:09;;;;;;;;;18.40;17.20;;;;;24.56;40.56;100022.75;5090553;28;8858;-63
2022/05/04 10:27:36;;;;;;;;;16.20;15.80;;;;;24.06;41.42;100026.00;5091226;28;8815;-64
2022/05/04 10:32:50;;;;;;;;;19.40;16.00;;;;;22.27;44.19;100041.56;5092538;28;8836;-62
2022/05/04 10:35:20;;;;;;;;;18.20;17.20;;;;;21.50;45.88;100042.28;5093114;28;8843;-63
2022/05/04 10:37:48;;;;;;;;;25.60;21.40;;;;;21.38;46.13;100038.41;5092483;28;9513;-63
2022/05/04 10:40:15;;;;;;;;;18.20;17.00;;;;;22.14;44.46;100035.13;5092764;28;8816;-64
2022/05/04 10:42:44;;;;;;;;;20.40;17.00;;;;;22.77;43.19;100024.25;5092409;28;8974;-63
2022/05/04 10:45:12;;;;;;;;;16.80;15.40;;;;;22.97;43.11;100019.78;5071543;28;8852;-63
2022/05/04 10:47:40;;;;;;;;;20.60;16.60;;;;;22.63;43.69;100026.00;5070904;28;8852;-63
2022/05/04 10:50:08;;;;;;;;;18.60;16.40;;;;;22.21;44.66;100026.03;5070950;28;8853;-64
2022/05/04 10:52:35;;;;;;;;;18.40;17.40;;;;;21.92;44.79;100019.88;5070325;28;8845;-63
2022/05/04 10:55:06;;;;;;;;;22.00;19.60;;;;;21.61;44.91;100027.41;5071056;28;8849;-63
2022/05/04 10:57:34;;;;;;;;;26.40;23.00;;;;;22.08;44.53;100036.75;5070886;28;8854;-63
2022/05/04 11:00:22;;;;;;;;;24.20;22.00;;;;;23.06;42.81;100016.72;5071689;28;8861;-63
2022/05/04 11:02:50;;;;;;;;;20.00;18.80;;;;;23.91;41.19;100009.81;5084395;28;8867;-63
2022/05/04 11:05:17;;;;;;;;;27.00;24.00;;;;;24.74;40.09;100001.13;5077617;28;8840;-63
2022/05/04 11:07:45;;;;;;;;;24.40;22.20;;;;;25.47;38.79;100003.53;5062490;28;8840;-64
2022/05/04 11:10:15;;;;;;;;;30.60;29.00;;;;;26.13;38.17;99997.50;5070887;28;8834;-63
2022/05/04 11:12:43;;;;;;;;;17.40;15.40;;;;;26.74;37.33;99988.44;5071094;28;8841;-63
2022/05/04 11:15:12;;;;;;;;;14.80;12.60;;;;;27.22;36.41;99999.50;5085700;28;8831;-63
2022/05/04 11:17:40;;;;;;;;;21.00;19.20;;;;;27.75;35.83;99995.94;5091136;28;8997;-64
2022/05/04 11:20:08;;;;;;;;;23.60;21.00;;;;;28.16;35.14;99987.75;5091441;28;8860;-64
2022/05/04 11:22:35;;;;;;;;;25.00;23.20;;;;;28.46;35.20;99994.06;5090937;28;8864;-64
2022/05/04 11:25:17;;;;;;;;;20.80;19.40;;;;;28.70;35.18;99995.78;5091316;28;8861;-64
2022/05/04 11:27:45;;;;;;;;;23.60;22.40;;;;;28.78;35.15;99994.56;5092156;28;8843;-66
2022/05/04 11:30:13;;;;;;;;;27.60;24.60;;;;;28.90;34.70;99995.41;5091770;28;8946;-65
2022/05/04 11:32:42;;;;;;;;;31.60;25.60;;;;;28.99;34.91;99991.28;5091201;28;8866;-64
2022/05/04 11:35:09;;;;;;;;;28.40;27.40;;;;;28.38;35.51;99991.66;5091682;28;8839;-64
2022/05/04 11:37:37;;;;;;;;;29.60;25.80;;;;;28.03;36.42;99992.59;5090895;28;8910;-63
2022/05/04 11:40:05;;;;;;;;;28.00;24.00;;;;;27.37;37.28;99998.09;5092015;28;8832;-64
2022/05/04 11:42:33;;;;;;;;;24.20;20.80;;;;;26.96;37.39;99997.03;5091212;28;8835;-64
2022/05/04 11:45:01;;;;;;;;;18.20;17.40;;;;;27.16;36.90;99986.78;5091168;28;8985;-64
2022/05/04 11:47:30;;;;;;;;;35.40;30.20;;;;;26.88;37.39;99987.22;5091808;28;8824;-64
2022/05/04 11:49:58;;;;;;;;;29.40;27.40;;;;;26.07;38.35;99999.25;5092771;28;8870;-64
2022/05/04 11:52:26;;;;;;;;;27.20;23.80;;;;;25.69;38.71;100001.09;5095782;28;8832;-63
2022/05/04 11:54:57;;;;;;;;;31.00;26.40;;;;;25.39;39.36;99992.84;5096469;28;8950;-63
2022/05/04 11:57:24;;;;;;;;;27.40;26.20;;;;;25.17;40.14;99984.06;5092328;28;8847;-63
2022/05/04 11:59:52;;;;;;;;;27.00;24.80;;;;;25.03;39.99;99987.88;5095740;28;9821;-63
2022/05/04 12:02:21;;;;;;;;;32.80;29.60;;;;;24.83;40.34;99986.25;5095485;28;8962;-63
2022/05/04 12:04:50;;;;;;;;;27.40;23.40;;;;;24.51;40.65;99984.34;5095532;28;8855;-63